메인 페이지
METAR-TAF:

METAR-TAF

공항 :

애머릴로, 텍사스, 미국

위도: 35-13-12N, 경도: 101-43-02W, 고도: 1099m

현재 날씨관측

예보는 43분 전, 18:53시(UTC)에 발표되었습니다.
20kt, 순간 최대 풍속 30kt
온도 24°C
습도 19%
기압 1011 hPa
시정: 16.1km
맑음

METAR: KAMA 191853Z 19020G30KT 10SM CLR 24/M01 A2984 RMK AO2 PK WND 19030/1847 SLP072 T02391006

시각: 13:36 (19:36 UTC)

예보

예보는 2 시간 13분 전, 17:23시(UTC)에 발표되었습니다.
예보 대상 시간: 19일 18시부터 20일 18시까지 (UTC)
16kt
시정: 10km
맑음
20일 0900시부터 (UTC)
남남서10kt
시정: 10km
고도 18000ft 상공 구름 많음
20일 1600시부터 (UTC)
남남서14kt
시정: 10km
고도 5000ft 상공 구름 많음, 적란운.
시계 내 뇌우

TAF: KAMA 191723Z 1918/2018 17016KT P6SM SKC FM200900 21010KT P6SM BKN180 FM201600 21014KT P6SM VCTS BKN050CB

4,000개 이상의 공항 관측 자료 및 예보 (METAR 및 TAF 보고).

지도상에서 검색 가능한 기상관측소가 노란 점과 빨간 점으로 표시되어 있습니다.

기상관측소 명을 보려면 표시 위로 마우스를 이동하세요.

날씨 관측과 예보를 보려면 클릭하세요.

지도 변경 : 확대하려면 엑스 표시가 있는 녹색 버튼, 축소하려면 빼기 표시가 있는 녹색 버튼, 다음 페이지의 지도를 보려면 녹색 화살표를 클릭하세요.


METAR-TAF: